Time;durP1;ratioP1;P1;durP2;ratioP2;P2;SDS_P1;SDS_P2;PMS_P1;PMS_P2;Temp;Humidity;BMP_temperature;BMP_pressure;BME280_temperature;BME280_humidity;BME280_pressure;Samples;Min_cycle;Max_cycle;Signal;HPM_P1;HPM_P2
2022/04/01 00:01:16;;;;;;;4.78;3.10;;;2.70;91.30;;;;;;7379010;19;20321;-70
2022/04/01 00:03:42;;;;;;;4.03;2.90;;;2.70;91.00;;;;;;7377837;19;20304;-71
2022/04/01 00:06:07;;;;;;;3.63;3.00;;;2.60;91.10;;;;;;7379028;19;20351;-72
2022/04/01 00:08:33;;;;;;;3.58;2.80;;;2.60;91.30;;;;;;7378004;19;20355;-70
2022/04/01 00:10:59;;;;;;;5.00;2.87;;;2.70;91.10;;;;;;7377753;19;20352;-70
2022/04/01 00:13:25;;;;;;;4.30;2.70;;;2.50;91.50;;;;;;7381827;19;20343;-70
2022/04/01 00:15:50;;;;;;;4.03;2.85;;;2.50;91.50;;;;;;7377059;19;20343;-70
2022/04/01 00:18:16;;;;;;;6.97;2.60;;;2.50;91.20;;;;;;7379097;19;20344;-71
2022/04/01 00:20:42;;;;;;;3.33;2.73;;;2.50;91.20;;;;;;7377307;19;20328;-70
2022/04/01 00:23:07;;;;;;;5.53;2.65;;;2.50;90.70;;;;;;7378421;19;20348;-71
2022/04/01 00:25:33;;;;;;;3.15;2.42;;;2.50;90.60;;;;;;7378885;19;21014;-70
2022/04/01 00:27:59;;;;;;;3.57;2.73;;;2.40;90.20;;;;;;7379315;19;20333;-71
2022/04/01 00:30:24;;;;;;;3.75;2.72;;;2.50;90.50;;;;;;7374666;19;20328;-70
2022/04/01 00:32:50;;;;;;;4.27;2.87;;;2.40;90.20;;;;;;7379204;19;20336;-71
2022/04/01 00:35:16;;;;;;;5.57;2.80;;;2.40;90.40;;;;;;7374824;19;20328;-71
2022/04/01 00:37:41;;;;;;;2.85;2.60;;;2.40;90.50;;;;;;7378595;19;21347;-71
2022/04/01 00:40:12;;;;;;;3.90;2.60;;;2.40;90.10;;;;;;7376665;19;20364;-71
2022/04/01 00:42:38;;;;;;;3.17;2.47;;;2.40;90.20;;;;;;7379692;19;20333;-71
2022/04/01 00:45:04;;;;;;;3.70;2.72;;;2.40;90.00;;;;;;7380330;19;20853;-71
2022/04/01 00:47:30;;;;;;;3.40;2.83;;;2.40;90.10;;;;;;7378149;19;20893;-70
2022/04/01 00:49:56;;;;;;;3.10;2.43;;;2.40;90.00;;;;;;7377497;19;20398;-70
2022/04/01 00:52:24;;;;;;;4.50;2.50;;;2.50;90.00;;;;;;7372740;19;20353;-71
2022/04/01 00:54:50;;;;;;;3.90;2.75;;;2.40;89.80;;;;;;7377557;19;20709;-71
2022/04/01 00:57:18;;;;;;;3.15;2.75;;;2.40;90.00;;;;;;7376918;19;20400;-71
2022/04/01 00:59:44;;;;;;;3.00;2.63;;;2.50;90.00;;;;;;7375876;19;20314;-72
2022/04/01 01:02:10;;;;;;;6.40;2.83;;;2.60;89.70;;;;;;7374850;19;20837;-71
2022/04/01 01:04:36;;;;;;;4.18;2.97;;;2.50;89.40;;;;;;7377391;19;20358;-70
2022/04/01 01:07:02;;;;;;;4.43;3.08;;;2.50;89.40;;;;;;7379291;19;20360;-71
2022/04/01 01:09:28;;;;;;;5.10;2.42;;;2.50;89.70;;;;;;7375174;19;20352;-70
2022/04/01 01:11:55;;;;;;;3.37;2.67;;;2.50;88.80;;;;;;7374201;19;20321;-71
2022/04/01 01:14:26;;;;;;;4.00;2.73;;;2.50;89.90;;;;;;7378982;19;20332;-71
2022/04/01 01:16:52;;;;;;;3.15;2.65;;;2.50;88.80;;;;;;7376648;19;20411;-70
2022/04/01 01:19:18;;;;;;;3.55;2.42;;;2.50;89.10;;;;;;7377374;19;20408;-73
2022/04/01 01:21:46;;;;;;;5.28;2.85;;;2.50;89.00;;;;;;7376770;19;20936;-70
2022/04/01 01:24:15;;;;;;;2.63;2.42;;;2.60;89.00;;;;;;7376766;19;20357;-71
2022/04/01 01:26:41;;;;;;;4.17;2.83;;;2.60;89.60;;;;;;7376753;19;21411;-70
2022/04/01 01:29:06;;;;;;;2.70;2.47;;;2.50;90.10;;;;;;7374345;19;20337;-71
2022/04/01 01:31:32;;;;;;;3.07;2.50;;;2.60;90.00;;;;;;7373740;19;20324;-70
2022/04/01 01:33:58;;;;;;;4.57;2.70;;;2.50;89.80;;;;;;7377173;19;20893;-71
2022/04/01 01:36:26;;;;;;;3.97;2.67;;;2.60;89.60;;;;;;7375863;19;20356;-71
2022/04/01 01:38:52;;;;;;;4.47;3.10;;;2.50;90.20;;;;;;7376522;19;20752;-70
2022/04/01 01:41:19;;;;;;;3.60;2.60;;;2.50;90.20;;;;;;7372767;19;20377;-70
2022/04/01 01:43:45;;;;;;;5.78;3.17;;;2.60;90.20;;;;;;7376450;19;20309;-71
2022/04/01 01:46:11;;;;;;;3.57;2.63;;;2.60;90.60;;;;;;7374789;19;20365;-70
2022/04/01 01:48:36;;;;;;;5.77;3.00;;;2.60;90.30;;;;;;7362430;19;20364;-71
2022/04/01 01:56:31;;;;;;;3.43;2.80;;;2.60;90.40;;;;;;7372452;19;20317;-71
2022/04/01 01:59:00;;;;;;;4.67;3.07;;;2.60;90.50;;;;;;7375693;19;20345;-72
2022/04/01 02:01:26;;;;;;;4.10;2.80;;;2.60;90.70;;;;;;7373660;19;20324;-71
2022/04/01 02:03:53;;;;;;;4.30;2.60;;;2.60;90.60;;;;;;7373111;19;20400;-71
2022/04/01 02:06:21;;;;;;;3.20;2.90;;;2.50;91.00;;;;;;7376193;19;20379;-70
2022/04/01 02:08:50;;;;;;;4.50;2.85;;;2.50;91.10;;;;;;7374391;19;20340;-71
2022/04/01 02:11:17;;;;;;;5.68;3.10;;;2.50;91.00;;;;;;7371907;19;20431;-71
2022/04/01 02:13:42;;;;;;;6.50;2.73;;;2.50;90.90;;;;;;7375692;19;20344;-71
2022/04/01 02:16:08;;;;;;;3.33;2.40;;;2.50;91.00;;;;;;7375365;19;20697;-71
2022/04/01 02:18:34;;;;;;;3.08;2.75;;;2.50;90.90;;;;;;7373610;19;20889;-70
2022/04/01 02:20:59;;;;;;;5.23;2.90;;;2.50;90.90;;;;;;7375004;19;20339;-70
2022/04/01 02:23:26;;;;;;;4.90;2.90;;;2.50;90.60;;;;;;7362949;19;20401;-71
2022/04/01 02:25:51;;;;;;;3.10;2.63;;;2.40;90.90;;;;;;7373947;19;20333;-70
2022/04/01 02:28:17;;;;;;;7.15;2.80;;;2.50;90.80;;;;;;7372682;19;20357;-70
2022/04/01 02:30:45;;;;;;;4.57;3.05;;;2.50;90.90;;;;;;7372066;19;20685;-71
2022/04/01 02:33:29;;;;;;;2.70;2.50;;;2.40;90.70;;;;;;7375643;19;20336;-70
2022/04/01 02:35:59;;;;;;;3.17;2.83;;;2.40;90.50;;;;;;7372006;19;20333;-71
2022/04/01 02:38:26;;;;;;;3.47;2.70;;;2.40;90.70;;;;;;7372659;19;20357;-72
2022/04/01 02:40:53;;;;;;;4.60;3.20;;;2.40;90.30;;;;;;7374596;19;20337;-71
2022/04/01 02:43:19;;;;;;;6.80;3.10;;;2.40;90.80;;;;;;7375293;19;20877;-70
2022/04/01 02:45:48;;;;;;;2.53;2.33;;;2.30;90.30;;;;;;7371466;19;20956;-72
2022/04/01 02:48:14;;;;;;;3.47;2.72;;;2.40;90.40;;;;;;7373870;19;20437;-71
2022/04/01 02:51:00;;;;;;;2.87;2.67;;;2.30;90.40;;;;;;7270456;19;2005459;-71
2022/04/01 02:53:26;;;;;;;4.18;2.95;;;2.30;90.20;;;;;;7375651;19;20317;-71
2022/04/01 02:55:52;;;;;;;3.13;2.63;;;2.30;90.40;;;;;;7371332;19;20332;-71
2022/04/01 02:58:18;;;;;;;3.40;2.80;;;2.30;90.40;;;;;;7372962;19;20361;-71
2022/04/01 03:00:45;;;;;;;4.22;2.78;;;2.30;90.30;;;;;;7372045;19;20330;-71
2022/04/01 03:03:11;;;;;;;5.30;3.38;;;2.30;90.40;;;;;;7373784;19;20876;-71
2022/04/01 03:05:38;;;;;;;4.00;3.00;;;2.30;90.10;;;;;;7372266;19;20317;-71
2022/04/01 03:08:06;;;;;;;4.25;2.97;;;2.30;90.40;;;;;;7373813;19;20361;-71
2022/04/01 03:10:32;;;;;;;4.07;2.83;;;2.20;90.00;;;;;;7373045;19;20745;-71
2022/04/01 03:12:58;;;;;;;3.42;2.78;;;2.30;90.10;;;;;;7373303;19;20445;-71
2022/04/01 03:16:03;;;;;;;4.65;2.85;;;2.20;90.20;;;;;;7165569;19;2004428;-71
2022/04/01 03:18:40;;;;;;;2.90;2.60;;;2.20;90.30;;;;;;7362721;19;20353;-71
2022/04/01 03:21:10;;;;;;;4.28;3.00;;;2.10;90.10;;;;;;7377504;19;20904;-70
2022/04/01 03:23:40;;;;;;;4.70;2.60;;;2.10;89.90;;;;;;7380320;19;20335;-71
2022/04/01 03:26:08;;;;;;;4.57;2.97;;;2.10;90.10;;;;;;7378370;19;20433;-71
2022/04/01 03:28:52;;;;;;;5.88;2.85;;;2.00;90.30;;;;;;7277370;19;2004797;-71
2022/04/01 03:31:19;;;;;;;3.65;2.95;;;2.10;90.10;;;;;;7379218;19;20333;-71
2022/04/01 03:33:45;;;;;;;4.80;2.97;;;2.00;89.00;;;;;;7378985;19;20331;-71
2022/04/01 03:36:11;;;;;;;3.97;2.92;;;2.00;89.30;;;;;;7377395;19;20359;-70
2022/04/01 03:38:41;;;;;;;5.90;2.83;;;2.00;89.10;;;;;;7378989;19;20353;-70
2022/04/01 03:41:13;;;;;;;5.18;3.10;;;2.00;90.10;;;;;;7378941;19;20293;-70
2022/04/01 03:43:40;;;;;;;4.70;3.30;;;2.00;89.10;;;;;;7379553;19;20402;-71
2022/04/01 03:46:08;;;;;;;4.70;2.70;;;2.00;89.00;;;;;;7376970;19;20383;-71
2022/04/01 03:48:45;;;;;;;7.20;3.03;;;2.00;88.70;;;;;;7380429;19;20317;-70
2022/04/01 03:51:15;;;;;;;3.05;2.40;;;1.90;88.60;;;;;;7378388;19;20977;-71
2022/04/01 03:53:42;;;;;;;3.60;2.83;;;1.90;88.80;;;;;;7379167;19;20967;-69
2022/04/01 03:56:13;;;;;;;4.90;2.67;;;1.90;88.70;;;;;;7376084;19;20353;-71
2022/04/01 03:59:04;;;;;;;4.63;2.97;;;1.90;88.70;;;;;;7379334;19;20341;-70
2022/04/01 04:01:48;;;;;;;2.88;2.50;;;1.90;88.30;;;;;;7274748;19;2004738;-70
2022/04/01 04:04:14;;;;;;;3.22;2.55;;;1.90;88.40;;;;;;7378990;19;20698;-71
2022/04/01 04:06:40;;;;;;;5.72;3.17;;;1.90;88.80;;;;;;7376596;19;20320;-71
2022/04/01 04:09:05;;;;;;;2.90;2.60;;;1.80;87.80;;;;;;7380685;19;20352;-70
2022/04/01 04:11:32;;;;;;;4.10;2.78;;;1.80;87.80;;;;;;7376318;19;20942;-71
2022/04/01 04:14:17;;;;;;;5.53;2.88;;;1.70;88.00;;;;;;7380102;19;20344;-71
2022/04/01 04:16:46;;;;;;;3.50;2.90;;;1.70;88.20;;;;;;7376820;19;20313;-71
2022/04/01 04:19:19;;;;;;;5.10;2.83;;;1.70;87.90;;;;;;7377300;19;20367;-71
2022/04/01 04:22:07;;;;;;;3.23;2.50;;;1.70;87.60;;;;;;7275552;19;2006166;-70
2022/04/01 04:25:00;;;;;;;3.70;3.22;;;1.70;88.10;;;;;;7276188;19;2004460;-71
2022/04/01 04:27:29;;;;;;;4.50;2.70;;;1.70;87.60;;;;;;7377649;19;20297;-70
2022/04/01 04:30:06;;;;;;;4.47;2.80;;;1.60;88.00;;;;;;7375276;19;20796;-71
2022/04/01 04:32:49;;;;;;;2.65;2.40;;;1.70;87.90;;;;;;7376100;19;20945;-71
2022/04/01 04:35:14;;;;;;;4.75;2.40;;;1.60;87.80;;;;;;7373980;19;20383;-71
2022/04/01 04:37:47;;;;;;;2.78;2.47;;;1.60;87.70;;;;;;7378665;19;20337;-71
2022/04/01 04:40:17;;;;;;;2.55;2.35;;;1.60;88.70;;;;;;7377312;19;20872;-71
2022/04/01 04:42:51;;;;;;;3.85;2.83;;;1.60;87.60;;;;;;7377868;19;20327;-71
2022/04/01 04:45:18;;;;;;;6.15;3.08;;;1.60;87.50;;;;;;7377550;19;20340;-71
2022/04/01 04:47:47;;;;;;;3.72;2.60;;;1.60;87.90;;;;;;7379213;19;20998;-71
2022/04/01 04:50:13;;;;;;;3.83;2.55;;;1.60;88.50;;;;;;7379841;19;20329;-70
2022/04/01 04:52:42;;;;;;;3.35;2.83;;;1.60;88.00;;;;;;7376950;19;20408;-71
2022/04/01 04:55:10;;;;;;;3.30;2.90;;;1.60;88.50;;;;;;7377880;19;20443;-71
2022/04/01 04:57:51;;;;;;;4.65;2.70;;;1.60;88.20;;;;;;7378248;19;20365;-71
2022/04/01 05:00:19;;;;;;;4.18;2.88;;;1.60;88.90;;;;;;7374836;19;20349;-71
2022/04/01 05:03:11;;;;;;;3.47;2.85;;;1.60;88.20;;;;;;7377791;19;20331;-71
2022/04/01 05:05:56;;;;;;;4.82;2.72;;;1.50;87.80;;;;;;7376266;19;20460;-71
2022/04/01 05:08:50;;;;;;;4.90;2.90;;;1.50;88.10;;;;;;7277066;19;2004512;-70
2022/04/01 05:11:45;;;;;;;4.25;2.90;;;1.60;88.90;;;;;;7272934;19;2004523;-71
2022/04/01 05:14:16;;;;;;;3.63;2.70;;;1.50;88.70;;;;;;7377013;19;20361;-71
2022/04/01 05:16:59;;;;;;;4.82;3.00;;;1.60;88.80;;;;;;7375314;19;20352;-70
2022/04/01 05:19:28;;;;;;;4.20;2.90;;;1.60;88.80;;;;;;7375406;19;20329;-71
2022/04/01 05:22:03;;;;;;;4.40;3.30;;;1.70;88.60;;;;;;7374217;19;20700;-70
2022/04/01 05:24:47;;;;;;;4.10;3.10;;;1.60;89.10;;;;;;7376833;19;20884;-71
2022/04/01 05:27:37;;;;;;;3.75;3.08;;;1.60;89.10;;;;;;7376035;19;20352;-71
2022/04/01 05:30:18;;;;;;;4.35;2.80;;;1.60;89.80;;;;;;7272360;19;2004671;-71
2022/04/01 05:32:59;;;;;;;3.65;2.90;;;1.60;89.80;;;;;;7361434;19;20341;-71
2022/04/01 05:35:30;;;;;;;3.55;2.88;;;1.60;89.30;;;;;;7374326;19;21372;-71
2022/04/01 05:37:57;;;;;;;3.50;3.20;;;1.60;89.80;;;;;;7377693;19;20396;-70
2022/04/01 05:40:23;;;;;;;4.30;3.00;;;1.60;89.20;;;;;;7376166;19;20329;-71
2022/04/01 05:42:52;;;;;;;3.92;3.10;;;1.60;89.90;;;;;;7376721;19;20323;-71
2022/04/01 05:45:38;;;;;;;3.53;3.03;;;1.60;89.90;;;;;;7374465;19;25177;-71
2022/04/01 05:48:09;;;;;;;6.00;3.47;;;1.60;90.40;;;;;;7377486;19;20343;-71
2022/04/01 05:50:34;;;;;;;3.10;2.80;;;1.70;89.80;;;;;;7373127;19;20333;-71
2022/04/01 05:53:00;;;;;;;5.50;3.00;;;1.70;90.10;;;;;;7374589;19;20356;-71
2022/04/01 05:55:26;;;;;;;4.00;3.03;;;1.70;90.00;;;;;;7376350;19;20408;-70
2022/04/01 05:57:54;;;;;;;4.57;2.90;;;1.80;89.90;;;;;;7378308;19;20301;-72
2022/04/01 06:00:20;;;;;;;5.20;2.88;;;1.80;89.50;;;;;;7377293;19;20343;-70
2022/04/01 06:03:23;;;;;;;3.85;2.92;;;1.80;89.90;;;;;;7377210;19;20348;-71
2022/04/01 06:06:09;;;;;;;6.13;3.20;;;1.80;90.10;;;;;;7274250;19;2004815;-71
2022/04/01 06:08:55;;;;;;;4.05;3.05;;;1.90;90.00;;;;;;7373309;19;20353;-71
2022/04/01 06:12:02;;;;;;;3.50;3.13;;;1.90;90.10;;;;;;7271375;19;2004713;-70
2022/04/01 06:15:06;;;;;;;4.82;3.03;;;1.90;90.20;;;;;;7268619;19;2004404;-70
2022/04/01 06:18:05;;;;;;;3.75;3.17;;;2.00;90.50;;;;;;7276933;19;2004542;-71
2022/04/01 06:20:32;;;;;;;3.30;2.88;;;2.00;90.30;;;;;;7272070;19;2004573;-70
2022/04/01 06:23:14;;;;;;;3.00;2.70;;;2.00;90.80;;;;;;7373500;19;20460;-71
2022/04/01 06:25:43;;;;;;;4.43;2.88;;;2.10;90.20;;;;;;7274649;19;2006392;-70
2022/04/01 06:28:24;;;;;;;3.60;2.90;;;2.10;90.20;;;;;;7379291;19;20768;-70
2022/04/01 06:30:54;;;;;;;2.80;2.60;;;2.20;90.20;;;;;;7269321;19;2004539;-70
2022/04/01 06:33:24;;;;;;;4.22;3.20;;;2.30;90.50;;;;;;7375866;19;20371;-70
2022/04/01 06:36:13;;;;;;;3.67;3.10;;;2.30;90.20;;;;;;7272133;19;2004588;-71
2022/04/01 06:38:54;;;;;;;3.47;2.85;;;2.30;90.10;;;;;;7375637;19;20849;-70
2022/04/01 06:41:21;;;;;;;4.70;3.00;;;2.40;90.30;;;;;;7372183;19;20326;-70
2022/04/01 06:43:55;;;;;;;2.70;2.50;;;2.40;90.30;;;;;;7373312;19;20916;-71
2022/04/01 06:46:40;;;;;;;3.08;2.78;;;2.50;90.20;;;;;;7270750;19;2004416;-71
2022/04/01 06:49:12;;;;;;;3.67;3.10;;;2.50;90.50;;;;;;7376290;19;20297;-69
2022/04/01 06:51:43;;;;;;;2.87;2.40;;;2.60;89.80;;;;;;7375482;19;20422;-70
2022/04/01 06:54:28;;;;;;;3.67;2.97;;;2.60;90.10;;;;;;7278893;19;2004623;-71
2022/04/01 06:57:12;;;;;;;3.47;2.90;;;2.70;90.20;;;;;;7260811;19;2004634;-70
2022/04/01 06:59:58;;;;;;;4.60;2.60;;;2.80;90.00;;;;;;7276251;19;2004601;-71
2022/04/01 07:02:23;;;;;;;4.70;2.90;;;2.80;89.80;;;;;;7379030;19;20304;-70
2022/04/01 07:04:49;;;;;;;3.23;2.60;;;2.80;89.30;;;;;;7381028;19;20325;-70
2022/04/01 07:07:15;;;;;;;3.30;2.65;;;2.90;90.10;;;;;;7380888;19;20352;-70
2022/04/01 07:09:40;;;;;;;3.70;2.50;;;2.80;89.10;;;;;;7382391;19;20305;-70
2022/04/01 07:12:07;;;;;;;2.42;2.22;;;2.80;89.30;;;;;;7378252;19;20355;-70
2022/04/01 07:14:32;;;;;;;3.25;2.80;;;2.90;89.90;;;;;;7381274;19;20308;-70
2022/04/01 07:16:58;;;;;;;3.00;2.70;;;3.00;90.10;;;;;;7382528;19;20344;-69
2022/04/01 07:19:24;;;;;;;4.40;2.50;;;3.00;89.40;;;;;;7381180;19;20355;-70
2022/04/01 07:21:50;;;;;;;2.60;2.40;;;3.00;89.20;;;;;;7380143;19;20309;-70
2022/04/01 07:24:15;;;;;;;4.07;2.70;;;3.10;89.70;;;;;;7379908;19;20336;-70
2022/04/01 07:26:43;;;;;;;4.13;2.70;;;3.10;89.60;;;;;;7379518;19;20329;-70
2022/04/01 07:29:08;;;;;;;2.65;2.45;;;3.10;89.70;;;;;;7385399;19;20802;-70
2022/04/01 07:34:25;;;;;;;3.43;2.73;;;3.20;90.00;;;;;;7278045;19;2004436;-70
2022/04/01 07:36:50;;;;;;;3.23;2.47;;;3.40;90.40;;;;;;7378086;19;20340;-69
2022/04/01 07:39:16;;;;;;;3.75;2.50;;;3.40;89.10;;;;;;7381839;19;20336;-70
2022/04/01 07:41:42;;;;;;;2.80;2.60;;;3.40;88.50;;;;;;7380766;19;20301;-70
2022/04/01 07:44:07;;;;;;;2.80;2.50;;;3.50;89.20;;;;;;7378844;19;20352;-70
2022/04/01 07:46:33;;;;;;;3.22;2.38;;;3.50;89.90;;;;;;7383869;19;20458;-70
2022/04/01 07:48:59;;;;;;;3.80;2.75;;;3.60;89.80;;;;;;7384235;19;20390;-71
2022/04/01 07:51:25;;;;;;;2.72;2.45;;;3.60;88.80;;;;;;7378080;19;20344;-65
2022/04/01 07:53:50;;;;;;;2.67;2.40;;;3.70;88.70;;;;;;7383057;19;20347;-63
2022/04/01 07:56:16;;;;;;;4.00;2.58;;;3.80;88.30;;;;;;7379451;19;20372;-62
2022/04/01 07:58:42;;;;;;;3.47;2.40;;;3.80;88.50;;;;;;7379611;19;20316;-63
2022/04/01 08:01:07;;;;;;;3.40;2.67;;;3.90;87.90;;;;;;7377016;19;20868;-63
2022/04/01 08:03:33;;;;;;;3.90;2.58;;;3.90;87.00;;;;;;7382647;19;21184;-62
2022/04/01 08:05:59;;;;;;;2.47;2.27;;;4.00;87.50;;;;;;7380395;19;20325;-62
2022/04/01 08:08:24;;;;;;;6.50;2.60;;;4.20;87.80;;;;;;7381772;19;20359;-63
2022/04/01 08:10:51;;;;;;;3.13;2.33;;;4.30;87.30;;;;;;7377027;19;20328;-63
2022/04/01 08:13:17;;;;;;;4.10;2.40;;;4.40;87.50;;;;;;7380261;19;20340;-62
2022/04/01 08:15:43;;;;;;;3.70;2.10;;;4.50;87.80;;;;;;7379427;19;20340;-63
2022/04/01 08:18:09;;;;;;;2.93;2.23;;;4.80;87.40;;;;;;7378666;19;20934;-63
2022/04/01 08:20:35;;;;;;;2.83;2.38;;;4.80;85.10;;;;;;7382169;19;20313;-63
2022/04/01 08:23:02;;;;;;;3.28;2.33;;;4.80;85.50;;;;;;7376257;19;20655;-63
2022/04/01 08:25:27;;;;;;;2.90;2.35;;;4.80;85.30;;;;;;7379345;19;20356;-63
2022/04/01 08:27:53;;;;;;;2.33;1.90;;;4.90;85.60;;;;;;7381622;19;20321;-63
2022/04/01 08:30:19;;;;;;;4.13;2.27;;;5.00;85.50;;;;;;7372889;19;20424;-64
2022/04/01 08:32:44;;;;;;;2.88;2.30;;;5.20;85.40;;;;;;7382040;19;20315;-64
2022/04/01 08:35:10;;;;;;;2.47;2.17;;;5.10;83.20;;;;;;7380822;19;20360;-64
2022/04/01 08:37:36;;;;;;;3.07;2.27;;;5.10;83.00;;;;;;7378157;19;20372;-63
2022/04/01 08:40:04;;;;;;;2.70;2.30;;;5.00;83.00;;;;;;7380602;19;20295;-64
2022/04/01 08:42:32;;;;;;;3.03;2.40;;;5.10;84.70;;;;;;7356253;19;21205;-63
2022/04/01 08:44:58;;;;;;;4.75;2.42;;;5.30;84.00;;;;;;7377052;19;20305;-64
2022/04/01 08:47:24;;;;;;;2.80;2.20;;;5.40;83.90;;;;;;7380147;19;20380;-63
2022/04/01 08:49:49;;;;;;;2.27;2.07;;;5.50;83.30;;;;;;7377712;19;21023;-64
2022/04/01 08:52:15;;;;;;;4.25;2.22;;;5.50;81.70;;;;;;7374649;19;20344;-64
2022/04/01 08:54:41;;;;;;;3.97;2.20;;;5.60;82.00;;;;;;7380226;19;20304;-63
2022/04/01 08:57:08;;;;;;;3.03;2.00;;;5.70;81.70;;;;;;7377850;19;20329;-63
2022/04/01 08:59:35;;;;;;;2.47;2.00;;;5.80;82.30;;;;;;7374462;19;20316;-64
2022/04/01 09:02:08;;;;;;;2.88;2.30;;;5.90;82.30;;;;;;7376043;19;20309;-64
2022/04/01 09:04:34;;;;;;;2.47;2.20;;;5.90;80.80;;;;;;7375823;19;20352;-63
2022/04/01 09:07:11;;;;;;;2.40;2.20;;;5.90;80.70;;;;;;7377434;19;20384;-64
2022/04/01 09:09:37;;;;;;;2.42;2.13;;;5.90;79.80;;;;;;7375468;19;20325;-63
2022/04/01 09:12:06;;;;;;;5.40;2.23;;;5.90;78.50;;;;;;7374416;19;20328;-63
2022/04/01 09:14:32;;;;;;;2.15;1.90;;;5.90;78.30;;;;;;7376485;19;20372;-64
2022/04/01 09:16:59;;;;;;;3.22;2.00;;;5.90;78.10;;;;;;7375683;19;20315;-64
2022/04/01 09:19:31;;;;;;;3.10;2.22;;;6.00;78.60;;;;;;7376354;19;20377;-64
2022/04/01 09:21:57;;;;;;;2.72;1.77;;;6.20;78.70;;;;;;7372898;19;20329;-64
2022/04/01 09:24:23;;;;;;;5.55;2.30;;;6.30;78.40;;;;;;7377286;19;20833;-64
2022/04/01 09:26:54;;;;;;;2.60;2.28;;;6.40;78.70;;;;;;7375613;19;20960;-64
2022/04/01 09:29:19;;;;;;;2.70;2.10;;;6.40;76.30;;;;;;7378408;19;20340;-64
2022/04/01 09:31:50;;;;;;;3.13;2.33;;;6.50;77.40;;;;;;7374655;19;20388;-64
2022/04/01 09:34:16;;;;;;;2.63;2.10;;;6.50;75.30;;;;;;7380334;19;20317;-64
2022/04/01 09:36:42;;;;;;;3.20;2.07;;;6.60;76.20;;;;;;7381011;19;20315;-65
2022/04/01 09:39:18;;;;;;;2.38;2.17;;;6.70;76.40;;;;;;7381157;19;21003;-66
2022/04/01 09:41:48;;;;;;;2.65;2.13;;;6.80;77.00;;;;;;7374829;19;20348;-64
2022/04/01 09:44:21;;;;;;;2.20;2.00;;;6.90;76.70;;;;;;7375449;19;20342;-64
2022/04/01 09:46:52;;;;;;;4.13;2.28;;;6.90;76.30;;;;;;7377635;19;20396;-63
2022/04/01 09:49:39;;;;;;;3.60;2.13;;;6.80;76.90;;;;;;7376952;19;20320;-64
2022/04/01 09:52:12;;;;;;;2.60;2.15;;;6.90;75.20;;;;;;7272977;19;2004498;-64
2022/04/01 09:54:53;;;;;;;2.60;2.15;;;7.00;75.00;;;;;;7377133;19;20337;-63
2022/04/01 09:57:21;;;;;;;3.40;2.28;;;7.00;74.10;;;;;;7273634;19;2004573;-63
2022/04/01 09:59:47;;;;;;;2.20;2.00;;;7.10;75.40;;;;;;7375043;19;20416;-63
2022/04/01 10:02:13;;;;;;;4.80;2.17;;;7.20;75.30;;;;;;7374433;19;20313;-63
2022/04/01 10:04:39;;;;;;;2.28;1.98;;;7.20;75.10;;;;;;7376006;19;20329;-63
2022/04/01 10:07:05;;;;;;;2.40;2.20;;;7.20;74.00;;;;;;7374207;19;20332;-64
2022/04/01 10:09:31;;;;;;;5.63;2.33;;;7.30;73.50;;;;;;7377064;19;20349;-63
2022/04/01 10:12:02;;;;;;;3.67;2.00;;;7.30;73.50;;;;;;7371660;19;20324;-63
2022/04/01 10:14:28;;;;;;;2.20;2.00;;;7.40;74.80;;;;;;7375430;19;21008;-63
2022/04/01 10:16:57;;;;;;;2.13;1.95;;;7.50;73.60;;;;;;7373436;19;20361;-63
2022/04/01 10:19:24;;;;;;;2.53;2.00;;;7.50;73.00;;;;;;7378184;19;20425;-64
2022/04/01 10:21:51;;;;;;;2.30;2.10;;;7.50;71.40;;;;;;7373544;19;20350;-63
2022/04/01 10:24:33;;;;;;;3.08;2.25;;;7.60;71.50;;;;;;7375530;19;20301;-64
2022/04/01 10:27:21;;;;;;;2.05;1.83;;;7.60;72.00;;;;;;7380213;19;20336;-63
2022/04/01 10:29:47;;;;;;;3.63;1.95;;;7.80;71.00;;;;;;7277638;19;2004532;-63
2022/04/01 10:32:29;;;;;;;2.33;1.83;;;7.90;71.00;;;;;;7379126;19;20364;-63
2022/04/01 10:34:59;;;;;;;3.25;2.15;;;8.00;71.20;;;;;;7380085;19;20331;-64
2022/04/01 10:37:27;;;;;;;2.55;2.10;;;8.10;70.30;;;;;;7379166;19;20332;-64
2022/04/01 10:40:08;;;;;;;2.20;2.00;;;8.00;69.60;;;;;;7382620;19;20315;-65
2022/04/01 10:42:35;;;;;;;3.65;2.00;;;8.10;68.90;;;;;;7379601;19;20353;-64
2022/04/01 10:45:03;;;;;;;2.60;2.13;;;8.20;68.10;;;;;;7382347;19;20392;-63
2022/04/01 10:53:33;;;;;;;2.20;2.00;;;8.70;65.30;;;;;;7382126;19;20313;-64
2022/04/01 10:56:26;;;;;;;1.83;1.73;;;8.60;65.30;;;;;;7276653;19;2024461;-64
2022/04/01 10:59:10;;;;;;;2.07;1.77;;;8.50;62.50;;;;;;7276610;19;2004414;-64
2022/04/01 11:01:38;;;;;;;1.70;1.60;;;8.60;62.20;;;;;;7380280;19;20344;-64
2022/04/01 11:04:23;;;;;;;2.17;1.85;;;8.90;63.60;;;;;;7380758;19;20312;-64
2022/04/01 11:07:00;;;;;;;1.98;1.80;;;8.90;62.50;;;;;;7379942;19;20327;-64
2022/04/01 11:09:35;;;;;;;2.63;2.20;;;9.00;62.30;;;;;;7378916;19;20361;-64
2022/04/01 11:12:21;;;;;;;2.83;2.13;;;9.10;63.60;;;;;;7379907;19;20316;-64
2022/04/01 11:14:59;;;;;;;2.30;1.80;;;9.10;61.30;;;;;;7378065;19;20325;-64
2022/04/01 11:17:27;;;;;;;4.88;2.00;;;9.00;60.60;;;;;;7385024;19;20348;-63
2022/04/01 11:20:12;;;;;;;1.85;1.75;;;9.00;61.00;;;;;;7382122;19;20864;-64
2022/04/01 11:22:53;;;;;;;3.65;2.17;;;9.30;62.10;;;;;;7379318;19;20360;-64
2022/04/01 11:25:22;;;;;;;2.07;1.80;;;9.40;61.80;;;;;;7382978;19;20996;-64
2022/04/01 11:28:08;;;;;;;2.88;1.80;;;9.40;59.50;;;;;;7381542;19;20321;-64
2022/04/01 11:30:40;;;;;;;1.65;1.55;;;9.70;60.30;;;;;;7377988;19;20341;-64
2022/04/01 11:33:13;;;;;;;4.82;2.00;;;9.70;57.20;;;;;;7380202;19;20949;-65
2022/04/01 11:35:40;;;;;;;2.38;1.70;;;9.50;56.70;;;;;;7376579;19;20308;-63
2022/04/01 11:38:07;;;;;;;2.00;1.80;;;9.20;56.60;;;;;;7383082;19;20635;-63
2022/04/01 11:40:34;;;;;;;2.53;1.80;;;9.10;56.90;;;;;;7377441;19;20341;-63
2022/04/01 11:43:05;;;;;;;2.83;1.90;;;9.30;58.60;;;;;;7381442;19;20316;-63
2022/04/01 11:45:48;;;;;;;2.20;1.80;;;9.40;57.10;;;;;;7378768;19;20357;-63
2022/04/01 11:48:19;;;;;;;1.88;1.58;;;9.50;56.00;;;;;;7276002;19;2004528;-64
2022/04/01 11:50:47;;;;;;;1.90;1.70;;;9.30;55.80;;;;;;7380156;19;20333;-63
2022/04/01 11:53:38;;;;;;;7.90;2.28;;;9.40;56.80;;;;;;7378619;19;20424;-63
2022/04/01 11:56:05;;;;;;;1.95;1.75;;;9.50;57.60;;;;;;7275384;19;2004501;-64
2022/04/01 11:58:58;;;;;;;2.17;1.73;;;9.50;56.40;;;;;;7379788;19;20337;-63
2022/04/01 12:01:55;;;;;;;3.58;1.90;;;9.50;55.30;;;;;;7271237;19;2004894;-63
2022/04/01 12:04:28;;;;;;;2.00;1.80;;;9.60;56.40;;;;;;7278825;19;2004417;-64
2022/04/01 12:09:39;;;;;;;3.47;1.80;;;9.50;54.80;;;;;;7278296;19;2004312;-63
2022/04/01 12:12:05;;;;;;;4.20;2.08;;;9.50;55.10;;;;;;7375381;19;20380;-63
2022/04/01 12:14:32;;;;;;;2.00;1.80;;;9.40;52.80;;;;;;7379899;19;20361;-63
2022/04/01 12:17:06;;;;;;;2.23;1.90;;;9.40;52.90;;;;;;7379721;19;20316;-63
2022/04/01 12:19:32;;;;;;;2.53;1.75;;;9.30;53.70;;;;;;7275791;19;2004814;-63
2022/04/01 12:21:59;;;;;;;1.60;1.50;;;9.10;52.10;;;;;;7376400;19;20342;-63
2022/04/01 12:24:35;;;;;;;2.17;1.88;;;9.00;53.50;;;;;;7381661;19;20344;-64
2022/04/01 12:27:02;;;;;;;2.60;1.63;;;9.00;53.10;;;;;;7378027;19;20309;-63
2022/04/01 12:29:28;;;;;;;1.88;1.70;;;9.10;54.70;;;;;;7380634;19;20376;-63
2022/04/01 12:32:02;;;;;;;2.50;1.77;;;9.10;53.20;;;;;;7375044;19;20342;-63
2022/04/01 12:34:28;;;;;;;2.25;1.85;;;9.20;53.30;;;;;;7380478;19;20364;-63
2022/04/01 12:37:00;;;;;;;2.08;1.60;;;9.20;53.00;;;;;;7378606;19;20309;-63
2022/04/01 12:39:30;;;;;;;1.88;1.70;;;9.20;52.00;;;;;;7375620;19;20320;-63
2022/04/01 12:42:06;;;;;;;4.40;2.00;;;9.10;52.70;;;;;;7375538;19;20300;-64
2022/04/01 12:44:34;;;;;;;1.83;1.70;;;8.90;51.50;;;;;;7373681;19;20431;-63
2022/04/01 12:47:03;;;;;;;5.97;2.08;;;8.90;52.10;;;;;;7373423;19;20883;-63
2022/04/01 12:49:32;;;;;;;2.90;1.90;;;9.00;52.50;;;;;;7378120;19;20339;-63
2022/04/01 12:52:05;;;;;;;2.35;1.92;;;9.00;50.20;;;;;;7377529;19;20914;-63
2022/04/01 12:54:39;;;;;;;2.30;1.73;;;8.70;50.00;;;;;;7376315;19;20358;-64
2022/04/01 12:57:06;;;;;;;3.00;1.83;;;8.60;48.50;;;;;;7374931;19;20308;-63
2022/04/01 12:59:39;;;;;;;4.28;2.10;;;8.50;48.40;;;;;;7378591;19;20317;-64
2022/04/01 13:02:06;;;;;;;3.07;1.63;;;8.40;48.40;;;;;;7373348;19;20333;-63
2022/04/01 13:04:49;;;;;;;3.28;1.60;;;8.40;48.80;;;;;;7374576;19;20400;-63
2022/04/01 13:07:16;;;;;;;2.70;1.73;;;8.50;48.70;;;;;;7378223;19;20481;-64
2022/04/01 13:09:52;;;;;;;2.20;2.00;;;8.40;47.50;;;;;;7377224;19;20336;-63
2022/04/01 13:12:40;;;;;;;2.17;1.65;;;8.50;47.80;;;;;;7374241;19;20601;-64
2022/04/01 13:15:08;;;;;;;4.50;1.70;;;8.40;47.30;;;;;;7379802;19;20363;-63
2022/04/01 13:17:51;;;;;;;1.63;1.52;;;8.50;49.00;;;;;;7372368;19;20352;-63
2022/04/01 13:20:26;;;;;;;1.88;1.77;;;8.60;47.50;;;;;;7376898;19;20340;-63
2022/04/01 13:22:52;;;;;;;6.55;1.95;;;8.60;47.40;;;;;;7374953;19;20312;-63
2022/04/01 13:25:18;;;;;;;1.98;1.70;;;8.60;46.10;;;;;;7377234;19;20335;-63
2022/04/01 13:27:46;;;;;;;3.03;1.80;;;8.70;46.70;;;;;;7372638;19;20407;-63
2022/04/01 13:30:13;;;;;;;3.88;1.80;;;8.70;45.30;;;;;;7368857;19;20331;-64
2022/04/01 13:32:39;;;;;;;2.53;1.80;;;8.60;44.60;;;;;;7374376;19;20308;-63